createdAt,value
2022-12-27T00:00:23.695Z,4.00
2022-12-27T00:00:55.283Z,4.00
2022-12-27T00:01:28.560Z,4.00
2022-12-27T00:01:50.789Z,4.00
2022-12-27T00:02:12.522Z,4.00
2022-12-27T00:02:47.197Z,4.00
2022-12-27T00:03:19.259Z,4.00
2022-12-27T00:03:51.537Z,4.00
2022-12-27T00:04:23.133Z,4.00
2022-12-27T00:04:55.169Z,4.00
2022-12-27T00:05:27.266Z,4.00
2022-12-27T00:05:50.151Z,4.00
2022-12-27T00:06:12.604Z,4.00
2022-12-27T00:06:47.083Z,4.00
2022-12-27T00:07:19.269Z,4.00
2022-12-27T00:07:51.085Z,4.00
2022-12-27T00:08:23.466Z,4.00
2022-12-27T00:08:55.259Z,4.00
2022-12-27T00:09:27.411Z,4.00
2022-12-27T00:09:49.883Z,4.00
2022-12-27T00:10:12.232Z,4.11
2022-12-27T00:10:47.185Z,4.11
2022-12-27T00:11:19.147Z,4.11
2022-12-27T00:11:58.055Z,4.11
2022-12-27T00:12:23.167Z,4.11
2022-12-27T00:12:55.136Z,4.11
2022-12-27T00:13:27.060Z,4.11
2022-12-27T00:13:50.703Z,4.11
2022-12-27T00:14:13.155Z,4.11
2022-12-27T00:14:47.306Z,4.11
2022-12-27T00:15:19.212Z,4.11
2022-12-27T00:15:51.222Z,4.11
2022-12-27T00:16:23.319Z,4.11
2022-12-27T00:16:55.648Z,4.11
2022-12-27T00:17:27.200Z,4.11
2022-12-27T00:17:50.284Z,4.11
2022-12-27T00:18:12.553Z,4.11
2022-12-27T00:18:47.311Z,4.11
2022-12-27T00:19:16.752Z,4.11
2022-12-27T00:19:52.135Z,4.11
2022-12-27T00:20:23.319Z,4.11
2022-12-27T00:20:55.308Z,4.11
2022-12-27T00:21:27.339Z,4.11
2022-12-27T00:21:50.069Z,4.11
2022-12-27T00:22:12.483Z,4.11
2022-12-27T00:22:47.901Z,4.11
2022-12-27T00:23:20.342Z,4.11
2022-12-27T00:23:52.202Z,4.11
2022-12-27T00:24:23.565Z,4.11
2022-12-27T00:24:55.498Z,4.11
2022-12-27T00:25:28.034Z,4.11
2022-12-27T00:25:50.647Z,4.11
2022-12-27T00:26:13.043Z,4.11
2022-12-27T00:26:48.368Z,4.11
2022-12-27T00:27:19.612Z,4.11
2022-12-27T00:27:51.242Z,4.11
2022-12-27T00:28:23.250Z,4.11
2022-12-27T00:28:55.722Z,4.11
2022-12-27T00:29:27.768Z,4.11
2022-12-27T00:29:49.923Z,4.11
2022-12-27T00:30:13.752Z,4.11
2022-12-27T00:30:47.332Z,4.11
2022-12-27T00:31:20.250Z,4.11
2022-12-27T00:31:53.194Z,4.11
2022-12-27T00:32:25.083Z,4.11
2022-12-27T00:32:55.527Z,4.00
2022-12-27T00:33:27.709Z,4.00
2022-12-27T00:33:50.753Z,4.00
2022-12-27T00:34:12.950Z,4.00
2022-12-27T00:34:47.410Z,4.00
2022-12-27T00:35:19.661Z,4.00
2022-12-27T00:35:53.796Z,4.00
2022-12-27T00:36:23.093Z,4.00
2022-12-27T00:36:55.268Z,4.00
2022-12-27T00:37:27.142Z,4.11
2022-12-27T00:37:50.030Z,4.11
2022-12-27T00:38:16.164Z,4.11
2022-12-27T00:38:47.436Z,4.11
2022-12-27T00:39:22.225Z,4.11
2022-12-27T00:39:54.803Z,4.11
2022-12-27T00:40:23.895Z,4.11
2022-12-27T00:40:55.100Z,4.11
2022-12-27T00:41:27.260Z,4.00
2022-12-27T00:41:49.977Z,4.00
2022-12-27T00:42:12.589Z,4.00
2022-12-27T00:42:47.336Z,4.00
2022-12-27T00:43:19.231Z,4.00
2022-12-27T00:43:51.861Z,4.00
2022-12-27T00:44:23.265Z,4.00
2022-12-27T00:44:55.231Z,3.88
2022-12-27T00:45:27.326Z,3.88
2022-12-27T00:45:50.361Z,3.88
2022-12-27T00:46:14.426Z,3.88
2022-12-27T00:46:47.473Z,3.88
2022-12-27T00:47:19.490Z,3.88
2022-12-27T00:47:52.083Z,3.88
2022-12-27T00:48:23.782Z,3.88
2022-12-27T00:48:55.346Z,3.88
2022-12-27T00:49:30.813Z,3.88
2022-12-27T00:49:50.086Z,3.88
2022-12-27T00:50:12.748Z,3.88
2022-12-27T00:50:48.195Z,3.88
2022-12-27T00:51:19.713Z,3.88
2022-12-27T00:51:51.267Z,3.77
2022-12-27T00:52:24.939Z,3.77
2022-12-27T00:52:59.139Z,3.77
2022-12-27T00:53:21.449Z,3.77
2022-12-27T00:53:55.696Z,3.77
2022-12-27T00:54:31.270Z,3.88
2022-12-27T00:54:53.825Z,3.88
2022-12-27T00:55:16.183Z,3.88
2022-12-27T00:55:51.033Z,3.88
2022-12-27T00:56:23.493Z,3.88
2022-12-27T00:56:55.351Z,3.88
2022-12-27T00:57:27.264Z,3.88
2022-12-27T00:57:59.229Z,3.88
2022-12-27T00:58:31.205Z,3.88
2022-12-27T00:58:53.785Z,3.88
2022-12-27T00:59:18.704Z,3.88
2022-12-27T00:59:51.127Z,3.88
2022-12-27T01:00:23.416Z,3.88
2022-12-27T01:00:55.294Z,3.88
2022-12-27T01:01:27.427Z,3.88
2022-12-27T01:01:50.670Z,3.88
2022-12-27T01:02:12.330Z,3.88
2022-12-27T01:02:47.216Z,3.88
2022-12-27T01:03:19.386Z,3.88
2022-12-27T01:03:51.246Z,3.88
2022-12-27T01:04:23.180Z,3.88
2022-12-27T01:04:55.310Z,3.88
2022-12-27T01:05:27.078Z,3.88
2022-12-27T01:05:50.406Z,3.88
2022-12-27T01:06:12.747Z,3.88
2022-12-27T01:06:47.161Z,3.88
2022-12-27T01:07:19.250Z,3.88
2022-12-27T01:07:51.302Z,3.88
2022-12-27T01:08:23.218Z,3.88
2022-12-27T01:08:55.114Z,3.88
2022-12-27T01:09:27.237Z,3.88
2022-12-27T01:09:50.087Z,4.00
2022-12-27T01:10:12.444Z,4.00
2022-12-27T01:10:47.656Z,4.00
2022-12-27T01:11:19.240Z,4.00
2022-12-27T01:11:51.492Z,4.00
2022-12-27T01:12:23.383Z,4.00
2022-12-27T01:12:55.117Z,4.00
2022-12-27T01:13:27.197Z,4.00
2022-12-27T01:13:50.774Z,4.00
2022-12-27T01:14:12.797Z,4.00
2022-12-27T01:14:47.175Z,4.00
2022-12-27T01:15:19.257Z,4.00
2022-12-27T01:15:51.347Z,4.00
2022-12-27T01:16:23.316Z,3.88
2022-12-27T01:16:55.280Z,3.88
2022-12-27T01:17:27.215Z,3.88
2022-12-27T01:17:49.967Z,3.88
2022-12-27T01:18:12.324Z,3.88
2022-12-27T01:18:47.316Z,3.88
2022-12-27T01:19:19.042Z,3.88
2022-12-27T01:19:51.344Z,3.88
2022-12-27T01:20:23.129Z,3.88
2022-12-27T01:20:55.306Z,3.88
2022-12-27T01:21:27.229Z,3.88
2022-12-27T01:21:51.665Z,3.88
2022-12-27T01:22:14.020Z,3.88
2022-12-27T01:22:47.251Z,3.88
2022-12-27T01:23:19.500Z,3.88
2022-12-27T01:23:51.245Z,3.88
2022-12-27T01:24:23.225Z,3.88
2022-12-27T01:24:56.744Z,3.88
2022-12-27T01:25:27.075Z,3.88
2022-12-27T01:25:53.797Z,3.88
2022-12-27T01:26:13.683Z,3.88
2022-12-27T01:26:47.349Z,3.88
2022-12-27T01:27:19.238Z,3.88
2022-12-27T01:27:51.296Z,3.88
2022-12-27T01:28:23.270Z,3.88
2022-12-27T01:28:55.138Z,3.88
2022-12-27T01:29:27.365Z,3.88
2022-12-27T01:29:49.961Z,3.88
2022-12-27T01:30:12.446Z,3.88
2022-12-27T01:30:47.362Z,3.88
2022-12-27T01:31:19.600Z,3.77
2022-12-27T01:31:48.665Z,3.77
2022-12-27T01:32:23.357Z,3.77
2022-12-27T01:32:55.573Z,3.77
2022-12-27T01:33:27.309Z,3.77
2022-12-27T01:33:50.140Z,3.77
2022-12-27T01:34:12.508Z,3.77
2022-12-27T01:34:47.374Z,3.77
2022-12-27T01:35:19.204Z,3.77
2022-12-27T01:35:51.370Z,3.77
2022-12-27T01:36:24.097Z,3.77
2022-12-27T01:36:55.592Z,3.72
2022-12-27T01:37:27.206Z,3.72
2022-12-27T01:37:50.460Z,3.72
2022-12-27T01:38:13.706Z,3.72
2022-12-27T01:38:47.312Z,3.72
2022-12-27T01:39:19.188Z,3.72
2022-12-27T01:39:51.240Z,3.72
2022-12-27T01:40:23.252Z,3.72
2022-12-27T01:40:55.147Z,3.72
2022-12-27T01:41:27.473Z,3.72
2022-12-27T01:41:50.326Z,3.72
2022-12-27T01:42:12.980Z,3.61
2022-12-27T01:42:48.389Z,3.61
2022-12-27T01:43:19.663Z,3.61
2022-12-27T01:43:52.540Z,3.61
2022-12-27T01:44:24.617Z,3.50
2022-12-27T01:45:01.735Z,3.50
2022-12-27T01:45:23.411Z,3.50
2022-12-27T01:45:55.788Z,3.50
2022-12-27T01:46:31.258Z,3.50
2022-12-27T01:46:54.060Z,3.50
2022-12-27T01:47:16.402Z,3.50
2022-12-27T01:47:51.220Z,3.50
2022-12-27T01:48:24.892Z,3.50
2022-12-27T01:48:55.220Z,3.50
2022-12-27T01:49:27.285Z,3.50
2022-12-27T01:49:50.540Z,3.38
2022-12-27T01:50:12.628Z,3.38
2022-12-27T01:50:47.263Z,3.38
2022-12-27T01:51:19.126Z,3.38
2022-12-27T01:51:51.176Z,3.38
2022-12-27T01:52:23.589Z,3.50
2022-12-27T01:52:55.512Z,3.50
2022-12-27T01:53:21.672Z,3.50
2022-12-27T01:53:56.215Z,3.50
2022-12-27T01:54:31.924Z,3.50
2022-12-27T01:54:54.715Z,3.50
2022-12-27T01:55:18.758Z,3.50
2022-12-27T01:55:51.959Z,3.38
2022-12-27T01:56:27.064Z,3.38
2022-12-27T01:56:56.480Z,3.38
2022-12-27T01:57:27.862Z,3.27
2022-12-27T01:57:50.332Z,3.27
2022-12-27T01:58:13.301Z,3.27
2022-12-27T01:58:47.204Z,3.27
2022-12-27T01:59:19.168Z,3.27
2022-12-27T01:59:51.056Z,3.27
2022-12-27T02:00:23.795Z,3.27
2022-12-27T02:00:55.246Z,3.27
2022-12-27T02:01:29.150Z,3.27
2022-12-27T02:01:51.849Z,3.27
2022-12-27T02:02:14.407Z,3.27
2022-12-27T02:02:47.490Z,3.38
2022-12-27T02:03:19.279Z,3.38
2022-12-27T02:03:51.541Z,3.38
2022-12-27T02:04:23.452Z,3.38
2022-12-27T02:04:55.684Z,3.38
2022-12-27T02:05:27.251Z,3.38
2022-12-27T02:05:50.200Z,3.38
2022-12-27T02:06:12.642Z,3.38
2022-12-27T02:06:47.205Z,3.38
2022-12-27T02:07:19.229Z,3.27
2022-12-27T02:07:51.185Z,3.27
2022-12-27T02:08:23.330Z,3.27
2022-12-27T02:08:55.577Z,3.27
2022-12-27T02:09:27.094Z,3.27
2022-12-27T02:09:50.009Z,3.27
2022-12-27T02:10:12.363Z,3.27
2022-12-27T02:10:47.173Z,3.27
2022-12-27T02:11:19.237Z,3.27
2022-12-27T02:11:51.329Z,3.27
2022-12-27T02:12:23.181Z,3.27
2022-12-27T02:12:55.108Z,3.27
2022-12-27T02:13:27.500Z,3.27
2022-12-27T02:13:51.601Z,3.27
2022-12-27T02:14:13.714Z,3.27
2022-12-27T02:14:47.181Z,3.27
2022-12-27T02:15:19.433Z,3.27
2022-12-27T02:15:51.190Z,3.27
2022-12-27T02:16:23.337Z,3.22
2022-12-27T02:16:55.225Z,3.22
2022-12-27T02:17:27.188Z,3.22
2022-12-27T02:17:50.055Z,3.22
2022-12-27T02:18:12.457Z,3.22
2022-12-27T02:18:47.192Z,3.22
2022-12-27T02:19:19.090Z,3.22
2022-12-27T02:19:51.215Z,3.22
2022-12-27T02:20:23.136Z,3.22
2022-12-27T02:20:55.233Z,3.22
2022-12-27T02:21:27.025Z,3.22
2022-12-27T02:21:49.911Z,3.22
2022-12-27T02:22:12.076Z,3.22
2022-12-27T02:22:47.412Z,3.22
2022-12-27T02:23:19.107Z,3.11
2022-12-27T02:23:51.481Z,3.11
2022-12-27T02:24:23.100Z,3.11
2022-12-27T02:24:56.667Z,3.11
2022-12-27T02:25:27.329Z,3.11
2022-12-27T02:25:50.663Z,3.11
2022-12-27T02:26:12.815Z,3.11
2022-12-27T02:26:47.184Z,3.11
2022-12-27T02:27:19.148Z,3.11
2022-12-27T02:27:51.221Z,3.22
2022-12-27T02:28:23.421Z,3.22
2022-12-27T02:28:55.147Z,3.22
2022-12-27T02:29:27.394Z,3.22
2022-12-27T02:29:49.498Z,3.22
2022-12-27T02:30:12.168Z,3.22
2022-12-27T02:30:47.243Z,3.22
2022-12-27T02:31:19.202Z,3.22
2022-12-27T02:31:51.061Z,3.22
2022-12-27T02:32:23.162Z,3.22
2022-12-27T02:32:55.653Z,3.22
2022-12-27T02:33:27.097Z,3.22
2022-12-27T02:33:50.601Z,3.22
2022-12-27T02:34:12.972Z,3.22
2022-12-27T02:34:47.175Z,3.22
2022-12-27T02:35:19.184Z,3.22
2022-12-27T02:35:51.128Z,3.22
2022-12-27T02:36:23.152Z,3.22
2022-12-27T02:36:55.151Z,3.11
2022-12-27T02:37:27.698Z,3.11
2022-12-27T02:37:50.012Z,3.11
2022-12-27T02:38:12.278Z,3.11
2022-12-27T02:38:47.198Z,3.11
2022-12-27T02:39:19.165Z,3.22
2022-12-27T02:39:51.311Z,3.22
2022-12-27T02:40:23.040Z,3.22
2022-12-27T02:40:55.465Z,3.22
2022-12-27T02:41:27.080Z,3.22
2022-12-27T02:41:56.071Z,3.22
2022-12-27T02:42:13.027Z,3.22
2022-12-27T02:42:47.298Z,3.22
2022-12-27T02:43:19.160Z,3.22
2022-12-27T02:43:51.123Z,3.27
2022-12-27T02:44:23.063Z,3.27
2022-12-27T02:44:55.464Z,3.27
2022-12-27T02:45:27.328Z,3.27
2022-12-27T02:45:49.865Z,3.27
2022-12-27T02:46:15.022Z,3.27
2022-12-27T02:46:47.393Z,3.27
2022-12-27T02:47:19.204Z,3.27
2022-12-27T02:47:51.080Z,3.27
2022-12-27T02:48:23.328Z,3.27
2022-12-27T02:48:55.219Z,3.27
2022-12-27T02:49:27.312Z,3.27
2022-12-27T02:49:50.670Z,3.27
2022-12-27T02:50:13.124Z,3.27
2022-12-27T02:50:47.291Z,3.27
2022-12-27T02:51:19.113Z,3.22
2022-12-27T02:51:51.428Z,3.22
2022-12-27T02:52:23.445Z,3.22
2022-12-27T02:52:55.433Z,3.22
2022-12-27T02:53:27.188Z,3.22
2022-12-27T02:53:50.055Z,3.22
2022-12-27T02:54:12.574Z,3.22
2022-12-27T02:54:47.085Z,3.22
2022-12-27T02:55:19.186Z,3.22
2022-12-27T02:55:51.200Z,3.22
2022-12-27T02:56:23.302Z,3.22
2022-12-27T02:56:55.191Z,3.22
2022-12-27T02:57:27.164Z,3.27
2022-12-27T02:57:50.067Z,3.27
2022-12-27T02:58:12.387Z,3.27
2022-12-27T02:58:47.156Z,3.27
2022-12-27T02:59:19.018Z,3.27
2022-12-27T02:59:51.164Z,3.27
2022-12-27T03:00:20.325Z,3.27
2022-12-27T03:00:55.814Z,3.27
2022-12-27T03:01:27.570Z,3.27
2022-12-27T03:01:54.034Z,3.27
2022-12-27T03:02:13.095Z,3.27
2022-12-27T03:02:47.472Z,3.27
2022-12-27T03:03:19.212Z,3.27
2022-12-27T03:03:51.503Z,3.27
2022-12-27T03:04:23.240Z,3.27
2022-12-27T03:04:55.272Z,3.27
2022-12-27T03:05:27.505Z,3.27
2022-12-27T03:05:53.549Z,3.38
2022-12-27T03:06:12.598Z,3.38
2022-12-27T03:06:47.630Z,3.38
2022-12-27T03:07:19.487Z,3.38
2022-12-27T03:07:52.778Z,3.38
2022-12-27T03:08:24.453Z,3.38
2022-12-27T03:08:55.686Z,3.38
2022-12-27T03:09:29.782Z,3.38
2022-12-27T03:09:50.591Z,3.38
2022-12-27T03:10:13.004Z,3.38
2022-12-27T03:10:47.328Z,3.50
2022-12-27T03:11:19.176Z,3.50
2022-12-27T03:11:51.094Z,3.50
2022-12-27T03:12:23.028Z,3.50
2022-12-27T03:12:55.498Z,3.50
2022-12-27T03:13:27.203Z,3.50
2022-12-27T03:13:49.913Z,3.50
2022-12-27T03:14:15.079Z,3.50
2022-12-27T03:14:47.561Z,3.50
2022-12-27T03:15:19.574Z,3.50
2022-12-27T03:15:51.349Z,3.50
2022-12-27T03:16:23.918Z,3.50
2022-12-27T03:16:56.218Z,3.50
2022-12-27T03:17:27.856Z,3.50
2022-12-27T03:17:50.283Z,3.38
2022-12-27T03:18:12.719Z,3.38
2022-12-27T03:18:47.323Z,3.38
2022-12-27T03:19:19.284Z,3.38
2022-12-27T03:19:53.338Z,3.50
2022-12-27T03:20:23.347Z,3.50
2022-12-27T03:20:55.286Z,3.50
2022-12-27T03:21:27.210Z,3.50
2022-12-27T03:21:49.886Z,3.50
2022-12-27T03:22:12.491Z,3.50
2022-12-27T03:22:47.358Z,3.50
2022-12-27T03:23:19.444Z,3.50
2022-12-27T03:23:51.449Z,3.50
2022-12-27T03:24:26.300Z,3.50
2022-12-27T03:24:55.272Z,3.50
2022-12-27T03:25:29.400Z,3.50
2022-12-27T03:25:52.033Z,3.50
2022-12-27T03:26:14.529Z,3.50
2022-12-27T03:26:48.005Z,3.50
2022-12-27T03:27:20.648Z,3.50
2022-12-27T03:27:51.914Z,3.50
2022-12-27T03:28:23.400Z,3.50
2022-12-27T03:28:55.623Z,3.50
2022-12-27T03:29:32.721Z,3.61
2022-12-27T03:29:50.066Z,3.61
2022-12-27T03:30:13.785Z,3.50
2022-12-27T03:30:47.358Z,3.50
2022-12-27T03:31:19.622Z,3.50
2022-12-27T03:31:51.584Z,3.50
2022-12-27T03:32:23.985Z,3.50
2022-12-27T03:32:55.239Z,3.50
2022-12-27T03:33:27.310Z,3.50
2022-12-27T03:33:50.139Z,3.50
2022-12-27T03:34:12.739Z,3.50
2022-12-27T03:34:47.546Z,3.50
2022-12-27T03:35:19.161Z,3.50
2022-12-27T03:35:51.293Z,3.50
2022-12-27T03:36:23.216Z,3.50
2022-12-27T03:36:55.162Z,3.50
2022-12-27T03:37:27.072Z,3.50
2022-12-27T03:37:49.815Z,3.50
2022-12-27T03:38:12.844Z,3.50
2022-12-27T03:38:47.340Z,3.50
2022-12-27T03:39:19.600Z,3.50
2022-12-27T03:39:51.140Z,3.50
2022-12-27T03:40:24.387Z,3.50
2022-12-27T03:40:56.333Z,3.61
2022-12-27T03:41:27.675Z,3.61
2022-12-27T03:41:50.301Z,3.61
2022-12-27T03:42:12.639Z,3.61
2022-12-27T03:42:47.933Z,3.61
2022-12-27T03:43:19.557Z,3.61
2022-12-27T03:43:51.728Z,3.72
2022-12-27T03:44:24.764Z,3.72
2022-12-27T03:44:55.860Z,3.72
2022-12-27T03:45:27.581Z,3.72
2022-12-27T03:45:49.978Z,3.72
2022-12-27T03:46:12.862Z,3.72
2022-12-27T03:46:47.583Z,3.72
2022-12-27T03:47:20.039Z,3.72
2022-12-27T03:47:51.132Z,3.72
2022-12-27T03:48:23.396Z,3.72
2022-12-27T03:48:55.264Z,3.77
2022-12-27T03:49:29.083Z,3.77
2022-12-27T03:49:51.707Z,3.77
2022-12-27T03:50:14.595Z,3.77
2022-12-27T03:50:47.961Z,3.77
2022-12-27T03:51:19.081Z,3.77
2022-12-27T03:51:51.284Z,3.77
2022-12-27T03:52:23.446Z,3.77
2022-12-27T03:52:55.999Z,3.77
2022-12-27T03:53:27.750Z,3.77
2022-12-27T03:53:50.161Z,3.77
2022-12-27T03:54:13.277Z,3.77
2022-12-27T03:54:49.344Z,3.77
2022-12-27T03:55:19.979Z,3.77
2022-12-27T03:55:51.235Z,3.77
2022-12-27T03:56:24.208Z,3.77
2022-12-27T03:56:55.850Z,3.77
2022-12-27T03:57:27.423Z,3.77
2022-12-27T03:57:49.931Z,3.77
2022-12-27T03:58:12.410Z,3.77
2022-12-27T03:58:48.082Z,3.77
2022-12-27T03:59:19.044Z,3.77
2022-12-27T03:59:51.205Z,3.77
2022-12-27T04:00:23.447Z,3.77
2022-12-27T04:00:56.824Z,3.77
2022-12-27T04:01:27.325Z,3.77
2022-12-27T04:01:50.249Z,3.77
2022-12-27T04:02:13.596Z,3.77
2022-12-27T04:02:47.527Z,3.77
2022-12-27T04:03:19.299Z,3.77
2022-12-27T04:03:51.163Z,3.77
2022-12-27T04:04:23.254Z,3.77
2022-12-27T04:04:55.196Z,3.77
2022-12-27T04:05:27.302Z,3.77
2022-12-27T04:05:50.117Z,3.72
2022-12-27T04:06:12.496Z,3.72
2022-12-27T04:06:47.368Z,3.72
2022-12-27T04:07:20.119Z,3.72
2022-12-27T04:07:51.258Z,3.72
2022-12-27T04:08:23.503Z,3.72
2022-12-27T04:08:55.358Z,3.77
2022-12-27T04:09:27.291Z,3.77
2022-12-27T04:09:50.023Z,3.77
2022-12-27T04:10:12.502Z,3.77
2022-12-27T04:10:47.524Z,3.77
2022-12-27T04:11:19.427Z,3.77
2022-12-27T04:11:51.219Z,3.77
2022-12-27T04:12:23.194Z,3.77
2022-12-27T04:12:55.211Z,3.77
2022-12-27T04:13:27.492Z,3.77
2022-12-27T04:13:50.468Z,3.77
2022-12-27T04:14:13.515Z,3.77
2022-12-27T04:14:48.270Z,3.77
2022-12-27T04:15:19.832Z,3.77
2022-12-27T04:15:51.800Z,3.77
2022-12-27T04:16:23.238Z,3.77
2022-12-27T04:16:56.008Z,3.77
2022-12-27T04:17:27.174Z,3.77
2022-12-27T04:17:51.892Z,3.77
2022-12-27T04:18:12.355Z,3.77
2022-12-27T04:18:47.240Z,3.88
2022-12-27T04:19:19.191Z,3.88
2022-12-27T04:19:51.183Z,3.88
2022-12-27T04:20:23.517Z,3.88
2022-12-27T04:20:55.314Z,3.88
2022-12-27T04:21:30.858Z,3.88
2022-12-27T04:21:50.502Z,3.88
2022-12-27T04:22:13.244Z,3.88
2022-12-27T04:22:48.163Z,3.88
2022-12-27T04:23:21.008Z,3.88
2022-12-27T04:23:51.403Z,3.88
2022-12-27T04:24:23.277Z,3.88
2022-12-27T04:24:55.235Z,3.88
2022-12-27T04:25:29.079Z,3.88
2022-12-27T04:25:51.715Z,3.88
2022-12-27T04:26:14.373Z,3.88
2022-12-27T04:26:48.512Z,3.88
2022-12-27T04:27:20.539Z,3.88
2022-12-27T04:27:51.236Z,3.88
2022-12-27T04:28:23.510Z,3.88
2022-12-27T04:28:55.260Z,3.88
2022-12-27T04:29:27.892Z,3.88
2022-12-27T04:29:50.636Z,3.88
2022-12-27T04:30:13.405Z,3.88
2022-12-27T04:30:48.112Z,3.88
2022-12-27T04:31:19.157Z,3.88
2022-12-27T04:31:51.425Z,3.88
2022-12-27T04:32:23.575Z,3.88
2022-12-27T04:32:55.381Z,3.88
2022-12-27T04:33:29.119Z,3.88
2022-12-27T04:33:50.315Z,3.88
2022-12-27T04:34:12.802Z,3.88
2022-12-27T04:34:47.569Z,3.88
2022-12-27T04:35:19.603Z,3.88
2022-12-27T04:35:51.370Z,4.00
2022-12-27T04:36:23.062Z,4.00
2022-12-27T04:36:56.743Z,4.00
2022-12-27T04:37:27.183Z,4.00
2022-12-27T04:37:49.741Z,4.00
2022-12-27T04:38:12.170Z,4.00
2022-12-27T04:38:47.289Z,4.00
2022-12-27T04:39:19.420Z,4.00
2022-12-27T04:39:51.649Z,4.00
2022-12-27T04:40:23.592Z,4.00
2022-12-27T04:40:55.674Z,4.00
2022-12-27T04:41:27.159Z,4.00
2022-12-27T04:41:49.875Z,4.00
2022-12-27T04:42:12.212Z,4.00
2022-12-27T04:42:47.573Z,4.00
2022-12-27T04:43:19.512Z,3.88
2022-12-27T04:43:51.253Z,3.88
2022-12-27T04:44:23.862Z,3.88
2022-12-27T04:44:55.597Z,3.88
2022-12-27T04:45:27.920Z,3.88
2022-12-27T04:45:50.737Z,3.88
2022-12-27T04:46:13.058Z,3.88
2022-12-27T04:46:47.664Z,3.88
2022-12-27T04:47:19.049Z,3.88
2022-12-27T04:47:52.142Z,3.88
2022-12-27T04:48:23.605Z,3.88
2022-12-27T04:48:55.974Z,3.88
2022-12-27T04:49:29.177Z,3.88
2022-12-27T04:49:51.712Z,3.88
2022-12-27T04:50:14.594Z,3.88
2022-12-27T04:50:47.570Z,3.88
2022-12-27T04:51:20.537Z,3.88
2022-12-27T04:51:51.301Z,3.88
2022-12-27T04:52:23.650Z,3.88
2022-12-27T04:52:56.741Z,3.88
2022-12-27T04:53:27.335Z,3.88
2022-12-27T04:53:49.880Z,3.88
2022-12-27T04:54:13.082Z,3.88
2022-12-27T04:54:48.303Z,3.88
2022-12-27T04:55:19.201Z,3.88
2022-12-27T04:55:51.144Z,3.88
2022-12-27T04:56:23.696Z,3.88
2022-12-27T04:56:55.875Z,3.88
2022-12-27T04:57:27.276Z,3.88
2022-12-27T04:57:51.427Z,3.88
2022-12-27T04:58:12.993Z,3.88
2022-12-27T04:58:47.742Z,3.88
2022-12-27T04:59:19.563Z,3.88
2022-12-27T04:59:52.820Z,4.00
2022-12-27T05:00:25.363Z,4.00
2022-12-27T05:00:55.497Z,4.00
2022-12-27T05:01:24.379Z,4.00
2022-12-27T05:01:57.052Z,4.00
2022-12-27T05:02:32.558Z,4.00
2022-12-27T05:02:54.838Z,4.00
2022-12-27T05:03:17.332Z,4.00
2022-12-27T05:03:51.647Z,4.11
2022-12-27T05:04:23.325Z,4.11
2022-12-27T05:04:55.429Z,4.11
2022-12-27T05:05:27.087Z,4.11
2022-12-27T05:05:49.982Z,4.11
2022-12-27T05:06:12.407Z,4.11
2022-12-27T05:06:47.201Z,4.11
2022-12-27T05:07:19.219Z,4.11
2022-12-27T05:07:51.192Z,4.11
2022-12-27T05:08:24.345Z,4.11
2022-12-27T05:08:55.540Z,4.11
2022-12-27T05:09:27.162Z,4.11
2022-12-27T05:09:50.056Z,4.11
2022-12-27T05:10:12.574Z,4.11
2022-12-27T05:10:47.298Z,4.11
2022-12-27T05:11:19.183Z,4.11
2022-12-27T05:11:51.253Z,4.11
2022-12-27T05:12:24.795Z,4.11
2022-12-27T05:12:56.906Z,4.11
2022-12-27T05:13:27.505Z,4.11
2022-12-27T05:13:50.234Z,4.11
2022-12-27T05:14:13.112Z,4.11
2022-12-27T05:14:48.347Z,4.11
2022-12-27T05:15:19.286Z,4.11
2022-12-27T05:15:51.531Z,4.11
2022-12-27T05:16:24.748Z,4.11
2022-12-27T05:16:55.787Z,4.11
2022-12-27T05:17:28.026Z,4.22
2022-12-27T05:17:50.817Z,4.22
2022-12-27T05:18:13.119Z,4.22
2022-12-27T05:18:48.568Z,4.22
2022-12-27T05:19:19.331Z,4.22
2022-12-27T05:19:51.457Z,4.22
2022-12-27T05:20:23.178Z,4.11
2022-12-27T05:20:55.260Z,4.11
2022-12-27T05:21:27.260Z,4.11
2022-12-27T05:21:50.344Z,4.11
2022-12-27T05:22:12.396Z,4.11
2022-12-27T05:22:51.787Z,4.11
2022-12-27T05:23:19.959Z,4.11
2022-12-27T05:23:52.161Z,4.11
2022-12-27T05:24:23.464Z,4.11
2022-12-27T05:24:56.039Z,4.11
2022-12-27T05:25:27.824Z,4.11
2022-12-27T05:25:53.923Z,4.11
2022-12-27T05:26:12.741Z,4.11
2022-12-27T05:26:48.605Z,4.11
2022-12-27T05:27:19.504Z,4.11
2022-12-27T05:27:51.460Z,4.11
2022-12-27T05:28:23.128Z,4.11
2022-12-27T05:28:55.316Z,4.11
2022-12-27T05:29:27.570Z,4.11
2022-12-27T05:29:50.298Z,4.11
2022-12-27T05:30:13.131Z,4.11
2022-12-27T05:30:47.708Z,4.11
2022-12-27T05:31:19.431Z,4.22
2022-12-27T05:31:51.204Z,4.22
2022-12-27T05:32:23.475Z,4.22
2022-12-27T05:32:55.916Z,4.22
2022-12-27T05:33:27.326Z,4.22
2022-12-27T05:33:50.298Z,4.22
2022-12-27T05:34:12.552Z,4.22
2022-12-27T05:34:47.164Z,4.22
2022-12-27T05:35:21.157Z,4.22
2022-12-27T05:35:52.631Z,4.22
2022-12-27T05:36:23.196Z,4.22
2022-12-27T05:36:56.646Z,4.27
2022-12-27T05:37:27.023Z,4.27
2022-12-27T05:37:54.755Z,4.27
2022-12-27T05:38:12.423Z,4.27
2022-12-27T05:38:47.139Z,4.27
2022-12-27T05:39:19.241Z,4.27
2022-12-27T05:39:51.603Z,4.22
2022-12-27T05:40:23.625Z,4.22
2022-12-27T05:40:55.755Z,4.22
2022-12-27T05:41:27.475Z,4.22
2022-12-27T05:41:52.123Z,4.22
2022-12-27T05:42:15.314Z,4.22
2022-12-27T05:42:47.519Z,4.22
2022-12-27T05:43:19.741Z,4.22
2022-12-27T05:43:51.558Z,4.22
2022-12-27T05:44:26.675Z,4.27
2022-12-27T05:44:55.895Z,4.27
2022-12-27T05:45:27.301Z,4.27
2022-12-27T05:45:50.408Z,4.27
2022-12-27T05:46:12.918Z,4.27
2022-12-27T05:46:47.255Z,4.27
2022-12-27T05:47:24.055Z,4.27
2022-12-27T05:47:57.960Z,4.27
2022-12-27T05:48:20.486Z,4.27
2022-12-27T05:48:55.397Z,4.27
2022-12-27T05:49:27.882Z,4.27
2022-12-27T05:49:50.889Z,4.27
2022-12-27T05:50:14.594Z,4.27
2022-12-27T05:50:47.249Z,4.27
2022-12-27T05:51:19.063Z,4.38
2022-12-27T05:51:51.171Z,4.38
2022-12-27T05:52:19.725Z,4.38
2022-12-27T05:52:56.218Z,4.38
2022-12-27T05:53:27.680Z,4.38
2022-12-27T05:53:50.401Z,4.38
2022-12-27T05:54:13.551Z,4.38
2022-12-27T05:54:47.358Z,4.38
2022-12-27T05:55:19.356Z,4.38
2022-12-27T05:55:51.702Z,4.38
2022-12-27T05:56:24.226Z,4.38
2022-12-27T05:56:55.810Z,4.50
2022-12-27T05:57:27.442Z,4.50
2022-12-27T05:57:50.008Z,4.50
2022-12-27T05:58:12.726Z,4.50
2022-12-27T05:58:47.993Z,4.50
2022-12-27T05:59:20.372Z,4.50
2022-12-27T05:59:51.706Z,4.50
2022-12-27T06:00:24.331Z,4.50
2022-12-27T06:00:55.428Z,4.50
2022-12-27T06:01:28.276Z,4.50
2022-12-27T06:01:51.005Z,4.50
2022-12-27T06:02:13.331Z,4.50
2022-12-27T06:02:47.654Z,4.50
2022-12-27T06:03:19.710Z,4.50
2022-12-27T06:03:52.508Z,4.50
2022-12-27T06:04:23.805Z,4.50
2022-12-27T06:04:55.525Z,4.61
2022-12-27T06:05:27.151Z,4.61
2022-12-27T06:05:49.824Z,4.61
2022-12-27T06:06:12.542Z,4.61
2022-12-27T06:06:47.361Z,4.61
2022-12-27T06:07:19.094Z,4.61
2022-12-27T06:07:51.161Z,4.61
2022-12-27T06:08:23.547Z,4.61
2022-12-27T06:08:55.414Z,4.61
2022-12-27T06:09:27.197Z,4.61
2022-12-27T06:09:49.878Z,4.61
2022-12-27T06:10:12.440Z,4.61
2022-12-27T06:10:48.055Z,4.61
2022-12-27T06:11:19.079Z,4.61
2022-12-27T06:11:51.248Z,4.61
2022-12-27T06:12:23.504Z,4.72
2022-12-27T06:12:55.397Z,4.72
2022-12-27T06:13:27.323Z,4.72
2022-12-27T06:13:49.856Z,4.72
2022-12-27T06:14:12.666Z,4.72
2022-12-27T06:14:47.461Z,4.72
2022-12-27T06:15:20.590Z,4.72
2022-12-27T06:15:51.094Z,4.72
2022-12-27T06:16:23.361Z,4.72
2022-12-27T06:16:56.047Z,4.72
2022-12-27T06:17:29.375Z,4.72
2022-12-27T06:17:51.988Z,4.72
2022-12-27T06:18:16.135Z,4.72
2022-12-27T06:18:48.956Z,4.72
2022-12-27T06:19:19.218Z,4.72
2022-12-27T06:19:55.333Z,4.72
2022-12-27T06:20:23.155Z,4.72
2022-12-27T06:20:55.403Z,4.72
2022-12-27T06:21:27.196Z,4.72
2022-12-27T06:21:49.874Z,4.72
2022-12-27T06:22:12.401Z,4.72
2022-12-27T06:22:47.644Z,4.72
2022-12-27T06:23:19.788Z,4.72
2022-12-27T06:23:51.952Z,4.72
2022-12-27T06:24:23.587Z,4.72
2022-12-27T06:24:55.432Z,4.72
2022-12-27T06:25:27.138Z,4.72
2022-12-27T06:25:52.344Z,4.72
2022-12-27T06:26:12.249Z,4.72
2022-12-27T06:26:50.306Z,4.72
2022-12-27T06:27:19.567Z,4.72
2022-12-27T06:27:51.908Z,4.72
2022-12-27T06:28:23.322Z,4.72
2022-12-27T06:28:55.309Z,4.72
2022-12-27T06:29:27.244Z,4.77
2022-12-27T06:29:49.883Z,4.77
2022-12-27T06:30:13.351Z,4.77
2022-12-27T06:30:48.779Z,4.72
2022-12-27T06:31:21.028Z,4.72
2022-12-27T06:31:51.455Z,4.72
2022-12-27T06:32:23.317Z,4.72
2022-12-27T06:32:55.387Z,4.72
2022-12-27T06:33:28.955Z,4.72
2022-12-27T06:33:51.370Z,4.77
2022-12-27T06:34:13.888Z,4.77
2022-12-27T06:34:48.508Z,4.72
2022-12-27T06:35:19.366Z,4.72
2022-12-27T06:35:51.337Z,4.77
2022-12-27T06:36:23.325Z,4.77
2022-12-27T06:36:55.335Z,4.77
2022-12-27T06:37:27.162Z,4.77
2022-12-27T06:37:49.831Z,4.77
2022-12-27T06:38:12.398Z,4.77
2022-12-27T06:38:47.845Z,4.77
2022-12-27T06:39:19.258Z,4.77